Tiempo atmosférico en la estación meteorológica de Almudébar, Huesca (390 m.)

Fecha
DESCASC
Temp. máxima en grados centígrados (hora)
DESCASC
Temp. mínima en grados centígrados (hora)
DESCASC
Temp. media en grados centígrados
DESCASC
Racha de viento máxima en m/sg (hora)
DESCASC
Velocidad máxima media en intervalos de 10 minutos(hora)
DESCASC
Precipitaciones diarias en mm
DESCASC
Precipitaciones de 00:00 a 06:00 en mm
DESCASC
Precipitaciones de 06:00 a 12:00 en mm
DESCASC
Precipitaciones de 12:00 a 18:00 en mm
DESCASC
Precipitaciones de 18:00 a 24:00 en mm
DESCASC

Gráficas

Temp. máximas Temp. mínimas Temp. medias Precipitaciones Rachas de viento máximas Velocidades máximas media en intervalos de 10 minutos

Datos horarios

Fecha y hora oficial Temperatura (ºC) Velocidad del viento (km/h) Dirección del viento Racha (km/h) Dirección de racha Precipitación (mm) Presión (hPa) Tendencia (hPa) Humedad (%)
2017-11-24 23:00:00 9.7 6 Este 13 Este 0 -- -- 77
2017-11-24 22:00:00 11.5 10 Nordeste 17 Nordeste 0 -- -- 69
2017-11-24 21:00:00 11.5 12 Nordeste 14 Nordeste 0 -- -- 69
2017-11-24 20:00:00 12.2 5 Este 9 Este 0 -- -- 67
2017-11-24 19:00:00 13.1 2 Nordeste 8 Sudeste 0 -- -- 65
2017-11-24 18:00:00 13.9 5 Nordeste 8 Nordeste 0 -- -- 62
2017-11-24 17:00:00 15 2 Este 6 Nordeste 0 -- -- 58
2017-11-24 16:00:00 16 4 Norte 9 Nordeste 0 -- -- 54
2017-11-24 15:00:00 16.1 3 Norte 5 Norte 0 -- -- 54
2017-11-24 14:00:00 16 2 Sudoeste 8 Sudeste 0 -- -- 54
2017-11-24 13:00:00 15.3 4 Este 12 Nordeste 0 -- -- 56
2017-11-24 12:00:00 14.4 9 Sudeste 18 Este 0 -- -- 59
2017-11-24 11:00:00 12.3 9 Sudeste 14 Este 0 -- -- 73
2017-11-24 10:00:00 10.2 4 Este 12 Este 0 -- -- 79
2017-11-24 09:00:00 8.9 5 Este 9 Sudeste 0 -- -- 81
2017-11-24 08:00:00 9 2 Este 9 Este 0 -- -- 78
2017-11-24 07:00:00 9.5 5 Este 12 Este 0 -- -- 77
2017-11-24 06:00:00 10.4 6 Sudoeste 22 Este 0 -- -- 70
2017-11-24 05:00:00 9.8 7 Nordeste 13 Este 0 -- -- 69
2017-11-24 04:00:00 9.8 10 Este 16 Este 0 -- -- 69
2017-11-24 03:00:00 9.2 10 Este 17 Este 0 -- -- 71
2017-11-24 02:00:00 8.6 10 Este 13 Este 0 -- -- 70
2017-11-24 01:00:00 6.4 8 Este 10 Este 0 -- -- 78
2017-11-24 00:00:00 6.5 0 Calma 6 Este 0 -- -- 77
2017-11-23 23:00:00 6.9 4 Este 8 Este 0 -- -- 77
2017-11-23 22:00:00 7.5 2 Este 9 Nordeste 0 -- -- 73
2017-11-23 21:00:00 7.6 3 Nordeste 13 Nordeste 0 -- -- 72
2017-11-23 20:00:00 9.4 11 Nordeste 17 Nordeste 0 -- -- 67
2017-11-23 19:00:00 10.3 7 Nordeste 14 Este 0 -- -- 62
2017-11-23 18:00:00 12.8 11 Este 13 Este 0 -- -- 56
2017-11-23 17:00:00 15.8 9 Este 14 Este 0 -- -- 49
2017-11-23 16:00:00 16.5 11 Sudeste 17 Sudeste 0 -- -- 48
2017-11-23 15:00:00 16.6 10 Sudeste 19 Sudeste 0 -- -- 47
2017-11-23 14:00:00 16.2 12 Sudeste 18 Este 0 -- -- 48
2017-11-23 13:00:00 14.5 12 Este 21 Este 0 -- -- 54
2017-11-23 12:00:00 12.7 11 Este 22 Este 0 -- -- 62
2017-11-23 11:00:00 10.2 15 Este 23 Este 0 -- -- 67
2017-11-23 10:00:00 6.9 9 Este 16 Este 0 -- -- 77
2017-11-23 09:00:00 5.7 7 Este 16 Nordeste 0 -- -- 80
2017-11-23 08:00:00 6.2 11 Nordeste 22 Este 0 -- -- 78
2017-11-23 07:00:00 6 13 Este 22 Este 0 -- -- 80
2017-11-23 06:00:00 5.2 10 Este 19 Este 0 -- -- 82
2017-11-23 05:00:00 5.2 11 Nordeste 15 Nordeste 0 -- -- 80
2017-11-23 04:00:00 5.8 13 Este 19 Este 0 -- -- 79
2017-11-23 03:00:00 5.5 12 Este 15 Este 0 -- -- 79
2017-11-23 02:00:00 4.7 9 Nordeste 18 Este 0 -- -- 80
2017-11-23 01:00:00 5.5 13 Este 22 Este 0 -- -- 79
2017-11-23 00:00:00 4.9 13 Este 22 Este 0 -- -- 80
2017-11-22 23:00:00 5 11 Este 16 Este 0 -- -- 81
2017-11-22 22:00:00 3.5 6 Este 9 Este 0 -- -- 80
2017-11-22 21:00:00 5.3 3 Nordeste 13 Nordeste 0 -- -- 75
2017-11-22 20:00:00 7.1 8 Este 17 Este 0 -- -- 71
2017-11-22 19:00:00 8.8 8 Nordeste 15 Este 0 -- -- 67
2017-11-22 18:00:00 10.5 9 Este 17 Este 0 -- -- 60
2017-11-22 17:00:00 13.3 12 Este 19 Sudeste 0 -- -- 52
2017-11-22 16:00:00 15.4 13 Sudeste 18 Sudeste 0 -- -- 44
2017-11-22 15:00:00 16.1 9 Sudeste 15 Este 0 -- -- 43
2017-11-22 14:00:00 15.3 9 Sudeste 15 Sudeste 0 -- -- 46
2017-11-22 13:00:00 14.1 9 Sudeste 15 Sudeste 0 -- -- 51
2017-11-22 12:00:00 12.2 9 Sudeste 14 Sudeste 0 -- -- 59
2017-11-22 11:00:00 9.5 5 Sudeste 8 Sudeste 0 -- -- 74
2017-11-22 10:00:00 4 0 Calma 3 Sudeste 0 -- -- 93
2017-11-22 09:00:00 -0.6 0 Calma 4 Noroeste 0 -- -- 92
2017-11-22 08:00:00 -0.9 0 Calma 2 Nordeste 0 -- -- 92
2017-11-22 07:00:00 -1.2 2 Norte 5 Norte 0 -- -- 91
2017-11-22 06:00:00 -0.3 0 Calma 8 Norte 0 -- -- 89
2017-11-22 05:00:00 0.4 3 Nordeste 5 Nordeste 0 -- -- 91
2017-11-22 04:00:00 0.9 3 Nordeste 4 Nordeste 0 -- -- 91
2017-11-22 03:00:00 1 6 Nordeste 9 Nordeste 0 -- -- 90
2017-11-22 02:00:00 0.8 0 Calma 12 Nordeste 0 -- -- 83
2017-11-22 01:00:00 2.8 12 Nordeste 15 Nordeste 0 -- -- 85
2017-11-22 00:00:00 3.2 9 Nordeste 11 Nordeste 0 -- -- 81
2017-11-21 23:00:00 3.4 4 Este 6 Este 0 -- -- 80
2017-11-21 22:00:00 3.9 4 Este 12 Nordeste 0 -- -- 74
2017-11-21 21:00:00 5.3 6 Nordeste 15 Este 0 -- -- 75
2017-11-21 20:00:00 6.1 13 Este 14 Nordeste 0 -- -- 69
2017-11-21 19:00:00 7.3 9 Nordeste 12 Nordeste 0 -- -- 65
2017-11-21 18:00:00 11.8 -- -- -- -- 0 -- -- 52
2017-11-21 17:00:00 15.8 0 Calma 10 Sudoeste 0 -- -- 43
2017-11-21 16:00:00 16.3 7 Sudoeste 10 Sudoeste 0 -- -- 42
2017-11-21 15:00:00 15.8 5 Sudoeste 15 Sudoeste 0 -- -- 42
2017-11-21 14:00:00 14.9 9 Oeste 18 Sudoeste 0 -- -- 46
2017-11-21 13:00:00 13.7 7 Sudoeste 14 Sudoeste 0 -- -- 50
2017-11-21 12:00:00 11.4 4 Sudoeste 10 Sudoeste 0 -- -- 60
2017-11-21 11:00:00 7.3 3 Noroeste 6 Oeste 0 -- -- 75
2017-11-21 10:00:00 3.3 3 Sudoeste 5 Noroeste 0 -- -- 93
2017-11-21 09:00:00 -1 3 Noroeste 5 Noroeste 0 -- -- 94
2017-11-21 08:00:00 -1.8 0 Calma 2 Noroeste 0 -- -- 92
2017-11-21 07:00:00 -1.8 0 Calma 2 Noroeste 0 -- -- 91
2017-11-21 06:00:00 -1.5 0 Calma 2 Nordeste 0 -- -- 91
2017-11-21 05:00:00 -0.8 2 Norte 2 Norte 0 -- -- 91
2017-11-21 04:00:00 -0.4 0 Calma 5 Nordeste 0 -- -- 89
2017-11-21 03:00:00 -0.4 0 Calma 4 Nordeste 0 -- -- 87
2017-11-21 02:00:00 0.7 3 Norte 5 Nordeste 0 -- -- 87
2017-11-21 01:00:00 1.8 4 Nordeste 7 Nordeste 0 -- -- 83
2017-11-21 00:00:00 2.5 0 Calma 5 Nordeste 0 -- -- 83
2017-11-20 23:00:00 3.3 4 Nordeste 10 Este 0 -- -- 80
2017-11-20 22:00:00 4.5 7 Nordeste 15 Nordeste 0 -- -- 77
2017-11-20 21:00:00 4.9 10 Nordeste 14 Nordeste 0 -- -- 74
2017-11-20 20:00:00 5.2 8 Nordeste 11 Este 0 -- -- 73
2017-11-20 19:00:00 7.3 6 Nordeste 8 Nordeste 0 -- -- 64
2017-11-20 18:00:00 11.6 0 Calma 6 Sudoeste 0 -- -- 55
2017-11-20 17:00:00 15 4 Sudoeste 7 Sudoeste 0 -- -- 45
2017-11-20 16:00:00 15.4 4 Sudoeste 10 Sudoeste 0 -- -- 44
2017-11-20 15:00:00 14.6 5 Sudoeste 13 Sudoeste 0 -- -- 46
2017-11-20 14:00:00 13.8 7 Sudoeste 13 Sudoeste 0 -- -- 48
2017-11-20 13:00:00 12.2 4 Oeste 10 Sudoeste 0 -- -- 51
2017-11-20 12:00:00 10.8 3 Sudoeste 7 Sudoeste 0 -- -- 55
2017-11-20 11:00:00 7.9 2 Sur 5 Sur 0 -- -- 78
2017-11-20 10:00:00 3.7 2 Sudoeste 3 Sudoeste 0 -- -- 92
2017-11-20 09:00:00 -0.8 0 Calma 3 Norte 0 -- -- 92
2017-11-20 08:00:00 -1.2 0 Calma 7 Nordeste 0 -- -- 92
2017-11-20 07:00:00 -1.4 5 Nordeste 8 Nordeste 0 -- -- 91
2017-11-20 06:00:00 -1.1 0 Calma 4 Norte 0 -- -- 91
2017-11-20 05:00:00 -2 0 Calma 5 Nordeste 0 -- -- 88
2017-11-20 04:00:00 -0.5 2 Norte 5 Nordeste 0 -- -- 89
2017-11-20 03:00:00 -0.2 0 Calma 8 Este 0 -- -- 85
2017-11-20 02:00:00 1.2 5 Este 12 Este 0 -- -- 87
2017-11-20 01:00:00 0.5 6 Nordeste 8 Nordeste 0 -- -- 85
2017-11-20 00:00:00 0.7 2 Norte 5 Nordeste 0 -- -- 82
2017-11-19 23:00:00 1.4 0 Calma 6 Nordeste 0 -- -- 79
2017-11-19 22:00:00 2.6 0 Calma 4 Norte 0 -- -- 75
2017-11-19 21:00:00 3.2 0 Calma 5 Nordeste 0 -- -- 74
2017-11-19 20:00:00 4.8 6 Nordeste 8 Nordeste 0 -- -- 70
2017-11-19 19:00:00 6.7 5 Nordeste 7 Nordeste 0 -- -- 65
2017-11-19 18:00:00 10.9 0 Calma 6 Oeste 0 -- -- 53
2017-11-19 17:00:00 13.3 4 Oeste 12 Noroeste 0 -- -- 48
2017-11-19 16:00:00 13.5 8 Oeste 16 Oeste 0 -- -- 50
2017-11-19 15:00:00 12.9 8 Oeste 21 Oeste 0 -- -- 50
2017-11-19 14:00:00 12.4 8 Oeste 17 Oeste 0 -- -- 50
2017-11-19 13:00:00 11 9 Oeste 16 Oeste 0 -- -- 58
2017-11-19 12:00:00 9.5 10 Sudoeste 18 Oeste 0 -- -- 68
2017-11-19 11:00:00 6.8 9 Oeste 17 Oeste 0 -- -- 80
2017-11-19 10:00:00 4.6 9 Oeste 14 Oeste 0 -- -- 94
2017-11-19 09:00:00 1.4 3 Noroeste 8 Noroeste 0 -- -- 96
2017-11-19 08:00:00 0.4 5 Noroeste 8 Noroeste 0 -- -- 95
2017-11-19 07:00:00 -0.1 6 Noroeste 8 Noroeste 0 -- -- 95
2017-11-19 06:00:00 0.8 4 Noroeste 6 Oeste 0 -- -- 94
2017-11-19 05:00:00 0.2 3 Noroeste 6 Noroeste 0 -- -- 93
2017-11-19 04:00:00 -0.1 5 Noroeste 6 Noroeste 0 -- -- 93
2017-11-19 03:00:00 1 3 Noroeste 6 Noroeste 0 -- -- 93
2017-11-19 02:00:00 1.3 4 Noroeste 8 Noroeste 0 -- -- 91
2017-11-19 01:00:00 1.7 5 Noroeste 6 Noroeste 0 -- -- 89
2017-11-19 00:00:00 3 4 Noroeste 10 Noroeste 0 -- -- 88
2017-11-18 23:00:00 3.3 8 Noroeste 9 Noroeste 0 -- -- 84
2017-11-18 22:00:00 5 0 Calma 7 Noroeste 0 -- -- 78
2017-11-18 21:00:00 7.7 4 Noroeste 12 Oeste 0 -- -- 75
2017-11-18 20:00:00 9.1 4 Noroeste 10 Oeste 0 -- -- 70
2017-11-18 19:00:00 10.6 4 Sudoeste 10 Oeste 0 -- -- 65
2017-11-18 18:00:00 12.6 4 Oeste 11 Oeste 0 -- -- 58
2017-11-18 17:00:00 16.1 5 Oeste 18 Oeste 0 -- -- 49
2017-11-18 16:00:00 16.8 9 Oeste 23 Sudoeste 0 -- -- 45
2017-11-18 15:00:00 16.7 12 Oeste 23 Oeste 0 -- -- 47
2017-11-18 14:00:00 15.7 15 Oeste 25 Oeste 0 -- -- 49
2017-11-18 13:00:00 14.2 11 Oeste 23 Oeste 0 -- -- 56
2017-11-18 12:00:00 12 12 Oeste 22 Oeste 0 -- -- 65
2017-11-18 11:00:00 9.4 12 Oeste 21 Oeste 0 -- -- 74
2017-11-18 10:00:00 6.7 10 Noroeste 16 Noroeste 0 -- -- 87
2017-11-18 09:00:00 2.9 6 Noroeste 10 Noroeste 0 -- -- 92
2017-11-18 08:00:00 1.1 3 Noroeste 5 Norte 0 -- -- 93
2017-11-18 07:00:00 0.9 0 Calma 5 Noroeste 0 -- -- 91
2017-11-18 06:00:00 0.4 0 Calma 2 Noroeste 0 -- -- 89
2017-11-18 05:00:00 0.4 0 Calma 4 Norte 0 -- -- 88
2017-11-18 04:00:00 0.7 0 Calma 10 Noroeste 0 -- -- 86
2017-11-18 03:00:00 1.1 3 Noroeste 5 Noroeste 0 -- -- 87
2017-11-18 02:00:00 1.3 4 Noroeste 5 Noroeste 0 -- -- 86
2017-11-18 01:00:00 1.7 0 Calma 4 Norte 0 -- -- 82
2017-11-18 00:00:00 2.6 0 Calma 4 Oeste 0 -- -- 82
2017-11-17 23:00:00 3.1 0 Calma 4 Sudoeste 0 -- -- 77
2017-11-17 22:00:00 4.3 2 Nordeste 3 Nordeste 0 -- -- 73
2017-11-17 21:00:00 5.7 0 Calma 5 Nordeste 0 -- -- 69
2017-11-17 20:00:00 7.2 3 Nordeste 6 Norte 0 -- -- 62
2017-11-17 19:00:00 8.9 2 Nordeste 4 Noroeste 0 -- -- 59
2017-11-17 18:00:00 12.1 2 Noroeste 8 Sudoeste 0 -- -- 52
2017-11-17 17:00:00 15.4 3 Oeste 12 Sudoeste 0 -- -- 43
2017-11-17 16:00:00 16.7 5 Oeste 12 Sudoeste 0 -- -- 40
2017-11-17 15:00:00 15.9 5 Oeste 13 Sudoeste 0 -- -- 41
2017-11-17 14:00:00 15.2 8 Sudoeste 14 Oeste 0 -- -- 42
2017-11-17 13:00:00 13.9 8 Oeste 15 Sudoeste 0 -- -- 45
2017-11-17 12:00:00 11.7 5 Sudoeste 11 Sur 0 -- -- 52
2017-11-17 11:00:00 8.3 2 Sudoeste 8 Oeste 0 -- -- 64
2017-11-17 10:00:00 4.6 3 Sur 6 Norte 0 -- -- 81
2017-11-17 09:00:00 -0.2 4 Noroeste 6 Noroeste 0 -- -- 89
2017-11-17 08:00:00 -1.3 0 Calma 5 Nordeste 0 -- -- 87
2017-11-17 07:00:00 -1.9 0 Calma 3 Nordeste 0 -- -- 87
2017-11-17 06:00:00 -1 0 Calma 3 Norte 0 -- -- 86
2017-11-17 05:00:00 -0.6 2 Norte 5 Nordeste 0 -- -- 83
2017-11-17 04:00:00 -0.2 0 Calma 6 Nordeste 0 -- -- 82
2017-11-17 03:00:00 0.1 3 Norte 5 Noroeste 0 -- -- 84
2017-11-17 02:00:00 1.4 3 Norte 7 Nordeste 0 -- -- 78
2017-11-17 01:00:00 2.1 5 Nordeste 7 Nordeste 0 -- -- 76
2017-11-17 00:00:00 2.1 0 Calma 7 Nordeste 0 -- -- 76
2017-11-16 23:00:00 2.3 0 Calma 5 Nordeste 0 -- -- 74
2017-11-16 22:00:00 3.2 4 Nordeste 5 Nordeste 0 -- -- 72
2017-11-16 21:00:00 3.8 4 Nordeste 7 Nordeste 0 -- -- 68
2017-11-16 20:00:00 5.2 3 Nordeste 6 Nordeste 0 -- -- 63
2017-11-16 19:00:00 7.6 3 Nordeste 5 Este 0 -- -- 56
2017-11-16 18:00:00 11.2 3 Este 7 Sudeste 0 -- -- 46
2017-11-16 17:00:00 14 4 Sudeste 8 Sudeste 0 -- -- 40
2017-11-16 16:00:00 15 4 Sur 10 Sur 0 -- -- 36
2017-11-16 15:00:00 15.1 3 Sudeste 10 Sur 0 -- -- 39
2017-11-16 14:00:00 14.2 3 Sur 10 Sudeste 0 -- -- 41
2017-11-16 13:00:00 13 4 Sur 9 Sudoeste 0 -- -- 44
2017-11-16 12:00:00 10.8 3 Sudoeste 12 Sudoeste 0 -- -- 51
2017-11-16 11:00:00 8.5 5 Oeste 9 Sudoeste 0 -- -- 62
2017-11-16 10:00:00 4.2 2 Noroeste 5 Oeste 0 -- -- 80
2017-11-16 09:00:00 -1 0 Calma 4 Noroeste 0 -- -- 90
2017-11-16 08:00:00 -2.7 0 Calma 4 Noroeste 0 -- -- 87
2017-11-16 07:00:00 -2.4 0 Calma 5 Nordeste 0 -- -- 88
2017-11-16 06:00:00 -2 4 Nordeste 5 Nordeste 0 -- -- 87
2017-11-16 05:00:00 -1.5 3 Norte 4 Norte 0 -- -- 87
2017-11-16 04:00:00 -0.7 0 Calma 3 Norte 0 -- -- 83
2017-11-16 03:00:00 -0.6 2 Nordeste 4 Nordeste 0 -- -- 84
2017-11-16 02:00:00 -0.5 2 Nordeste 5 Nordeste 0 -- -- 79
2017-11-16 01:00:00 1.4 0 Calma 12 Nordeste 0 -- -- 75
2017-11-16 00:00:00 2.8 9 Nordeste 14 Nordeste 0 -- -- 73
2017-11-15 23:00:00 3.5 10 Nordeste 13 Este 0 -- -- 71
2017-11-15 22:00:00 3.5 10 Nordeste 15 Nordeste 0 -- -- 69
2017-11-15 21:00:00 3.3 10 Nordeste 13 Nordeste 0 -- -- 67
2017-11-15 20:00:00 4.1 5 Este 8 Nordeste 0 -- -- 66
2017-11-15 19:00:00 5.5 3 Nordeste 4 Nordeste 0 -- -- 60
2017-11-15 18:00:00 8.5 3 Noroeste 8 Oeste 0 -- -- 51
2017-11-15 17:00:00 11.5 6 Oeste 14 Oeste 0 -- -- 41
2017-11-15 16:00:00 12.8 10 Sudoeste 16 Sudoeste 0 -- -- 39
2017-11-15 15:00:00 12.8 6 Sudoeste 16 Oeste 0 -- -- 40
2017-11-15 14:00:00 12.3 8 Oeste 16 Sudoeste 0 -- -- 41
2017-11-15 13:00:00 10.8 9 Sudoeste -- -- -- -- -- 45
2017-11-15 12:00:00 8.4 9 Oeste 18 Oeste 0 -- -- 57
2017-11-15 11:00:00 5.5 9 Oeste 17 Oeste 0 -- -- 72
2017-11-15 10:00:00 1.8 4 Noroeste 10 Noroeste 0 -- -- 88
2017-11-15 09:00:00 -0.3 2 Oeste 10 Oeste 0 -- -- 89
2017-11-15 08:00:00 -1.4 8 Noroeste 12 Oeste 0 -- -- 89
2017-11-15 07:00:00 -1 7 Noroeste 10 Noroeste 0 -- -- 89
2017-11-15 06:00:00 -1.1 6 Noroeste 9 Noroeste 0 -- -- 89
2017-11-15 05:00:00 -1.2 4 Noroeste 10 Oeste 0 -- -- 88
2017-11-15 04:00:00 -1.6 4 Noroeste 12 Noroeste 0 -- -- 86
2017-11-15 03:00:00 -1.6 5 Oeste 8 Oeste 0 -- -- 85
2017-11-15 02:00:00 -1 3 Noroeste 8 Noroeste 0 -- -- 83
2017-11-15 01:00:00 -0.6 2 Noroeste 8 Noroeste 0 -- -- 77
2017-11-15 00:00:00 1.8 3 Oeste 10 Oeste 0 -- -- 74
2017-11-14 23:00:00 2.3 4 Noroeste 10 Oeste 0 -- -- 72
2017-11-14 22:00:00 4.5 8 Oeste 15 Oeste 0 -- -- 69
2017-11-14 21:00:00 5.3 8 Oeste 15 Oeste 0 -- -- 63
2017-11-14 20:00:00 6.3 4 Oeste 20 Noroeste 0 -- -- 58
2017-11-14 19:00:00 7.8 6 Noroeste 18 Oeste 0 -- -- 52
2017-11-14 18:00:00 9.7 9 Sudoeste 22 Oeste 0 -- -- 44
2017-11-14 17:00:00 12.8 13 Oeste 28 Oeste 0 -- -- 38
2017-11-14 16:00:00 14.4 13 Oeste 29 Oeste 0 -- -- 33
2017-11-14 15:00:00 14.4 16 Oeste 31 Oeste 0 -- -- 34
2017-11-14 14:00:00 14 14 Oeste 32 Oeste 0 -- -- 34
2017-11-14 13:00:00 13.1 15 Oeste 30 Oeste 0 -- -- 36
2017-11-14 12:00:00 11.6 16 Oeste 34 Oeste 0 -- -- 39
2017-11-14 11:00:00 9.4 19 Oeste 35 Oeste 0 -- -- 47
2017-11-14 10:00:00 7.2 17 Oeste 34 Noroeste 0 -- -- 54
2017-11-14 09:00:00 4.8 15 Oeste 37 Oeste 0 -- -- 64
2017-11-14 08:00:00 3.7 19 Oeste 33 Oeste 0 -- -- 67
2017-11-14 07:00:00 3.8 18 Oeste 36 Oeste 0 -- -- 66
2017-11-14 06:00:00 3.8 18 Oeste 32 Oeste 0 -- -- 64
2017-11-14 05:00:00 4 13 Oeste 30 Oeste 0 -- -- 61
2017-11-14 04:00:00 4.1 13 Oeste 36 Oeste 0 -- -- 60
2017-11-14 03:00:00 4.2 23 Noroeste 36 Oeste 0 -- -- 60
2017-11-14 02:00:00 4.4 19 Oeste 28 Oeste 0 -- -- 58
2017-11-14 01:00:00 3.1 4 Oeste 16 Oeste 0 -- -- 60
2017-11-14 00:00:00 4.1 6 Oeste 28 Noroeste 0 -- -- 56
2017-11-13 23:00:00 5.1 22 Noroeste 35 Oeste 0 -- -- 55
2017-11-13 22:00:00 5.2 24 Noroeste 35 Oeste 0 -- -- 56
2017-11-13 21:00:00 5.2 17 Oeste 30 Oeste 0 -- -- 55
2017-11-13 20:00:00 5.5 15 Oeste 26 Oeste 0 -- -- 53
2017-11-13 19:00:00 6.4 18 Noroeste 33 Oeste 0 -- -- 47
2017-11-13 18:00:00 7.6 12 Oeste 43 Noroeste 0 -- -- 44
2017-11-13 17:00:00 10.1 27 Noroeste 48 Noroeste 0 -- -- 36
2017-11-13 16:00:00 11.7 29 Noroeste 46 Noroeste 0 -- -- 32
2017-11-13 15:00:00 12.7 25 Noroeste 42 Noroeste 0 -- -- 27
2017-11-13 14:00:00 12.6 31 Noroeste 45 Noroeste 0 -- -- 28
2017-11-13 13:00:00 12.8 27 Oeste 45 Noroeste 0 -- -- 26
2017-11-13 12:00:00 12.1 27 Noroeste 45 Noroeste 0 -- -- 27
2017-11-13 11:00:00 10.8 28 Noroeste 44 Noroeste 0 -- -- 33
2017-11-13 10:00:00 9.9 27 Noroeste 45 Noroeste 0 -- -- 38
2017-11-13 09:00:00 8.2 31 Noroeste 50 Noroeste 0 -- -- 45
2017-11-13 08:00:00 7.5 30 Oeste 47 Oeste 0 -- -- 55
2017-11-13 07:00:00 7.7 26 Oeste 52 Oeste 0 -- -- 61
2017-11-13 06:00:00 7.4 22 Oeste 49 Oeste 0 -- -- 74
2017-11-13 05:00:00 8.7 28 Oeste 48 Oeste 0 -- -- 64
2017-11-13 04:00:00 9.8 29 Oeste 57 Oeste 0 -- -- 60
2017-11-13 03:00:00 10.1 23 Oeste 50 Oeste 0 -- -- 58
2017-11-13 02:00:00 10.9 28 Oeste 50 Oeste 0 -- -- 57
2017-11-13 01:00:00 11.9 28 Noroeste 44 Sudoeste 0 -- -- 61
2017-11-13 00:00:00 12.4 25 Oeste 51 Oeste 0 -- -- 77
2017-11-12 23:00:00 12.7 30 Oeste 46 Oeste 0 -- -- 76
2017-11-12 22:00:00 12.4 27 Oeste 46 Oeste 0 -- -- 77
2017-11-12 21:00:00 11.9 22 Oeste 48 Oeste 0 -- -- 81
2017-11-12 20:00:00 12.8 26 Oeste 43 Noroeste 0 -- -- 76
2017-11-12 19:00:00 13 18 Oeste 37 Oeste 0 -- -- 72
2017-11-12 18:00:00 13.6 26 Oeste 46 Noroeste 0 -- -- 68
2017-11-12 17:00:00 14.9 26 Oeste 51 Oeste 0 -- -- 63
2017-11-12 16:00:00 16.4 34 Oeste 59 Oeste 0 -- -- 56
2017-11-12 15:00:00 16.8 34 Oeste 56 Oeste 0 -- -- 58
2017-11-12 14:00:00 16.8 31 Oeste 51 Oeste 0 -- -- 59
2017-11-12 13:00:00 16 27 Oeste 49 Oeste 0 -- -- 60
2017-11-12 12:00:00 15.1 27 Oeste 49 Oeste 0 -- -- 64
2017-11-12 11:00:00 13.9 26 Oeste 50 Oeste 0 -- -- 67
2017-11-12 10:00:00 12.3 30 Oeste 50 Oeste 0 -- -- 73
2017-11-12 09:00:00 10.1 23 Oeste 46 Oeste 0 -- -- 82
2017-11-12 08:00:00 8.9 22 Oeste 46 Oeste 0 -- -- 84
2017-11-12 07:00:00 8.9 25 Oeste 44 Oeste 0 -- -- 85
2017-11-12 06:00:00 8.9 23 Oeste 47 Oeste 0 -- -- 85
2017-11-12 05:00:00 9 24 Oeste 42 Oeste 0 -- -- 86
2017-11-12 04:00:00 9.6 24 Oeste 39 Oeste 0 -- -- 86
2017-11-12 03:00:00 9.9 15 Oeste 36 Noroeste 0 -- -- 83
2017-11-12 02:00:00 10.2 20 Oeste 39 Oeste 0 -- -- 82
2017-11-12 01:00:00 10.3 27 Oeste 49 Noroeste 0 -- -- 82
2017-11-12 00:00:00 10.4 24 Oeste 53 Oeste 0 -- -- 80
2017-11-11 23:00:00 10.6 34 Noroeste 55 Noroeste 0 -- -- 79
2017-11-11 22:00:00 10.8 35 Oeste 52 Oeste 0 -- -- 78
2017-11-11 21:00:00 11.1 30 Oeste 53 Oeste 0 -- -- 78
2017-11-11 20:00:00 11.6 18 Oeste 49 Oeste 0 -- -- 75
2017-11-11 19:00:00 12.2 22 Oeste 45 Oeste 0 -- -- 68
2017-11-11 18:00:00 13.2 22 Oeste 51 Noroeste 0 -- -- 70
2017-11-11 17:00:00 15.2 32 Oeste 51 Oeste 0 -- -- 63
2017-11-11 16:00:00 17 32 Oeste 55 Oeste 0 -- -- 57
2017-11-11 15:00:00 17.4 41 Oeste 59 Oeste 0 -- -- 57
2017-11-11 14:00:00 17.9 30 Noroeste 52 Oeste 0 -- -- 55
2017-11-11 13:00:00 17.5 35 Noroeste 52 Noroeste 0 -- -- 56
2017-11-11 12:00:00 14.8 29 Oeste 49 Noroeste 0 -- -- 69
2017-11-11 11:00:00 12.9 29 Oeste 46 Oeste 0 -- -- 76
2017-11-11 10:00:00 12.6 28 Noroeste 46 Noroeste 0 -- -- 73
2017-11-11 09:00:00 12.1 28 Noroeste 48 Noroeste 0 -- -- 74
2017-11-11 08:00:00 11.4 33 Oeste 53 Oeste 0 -- -- 79
2017-11-11 07:00:00 10.7 33 Noroeste 57 Oeste 0 -- -- 83
2017-11-11 06:00:00 10.8 37 Oeste 63 Oeste 0 -- -- 81
2017-11-11 05:00:00 10.4 41 Noroeste 68 Noroeste 0 -- -- 82
2017-11-11 04:00:00 10.8 41 Noroeste 61 Noroeste 0 -- -- 78
2017-11-11 03:00:00 11.2 34 Noroeste 56 Noroeste 0 -- -- 73
2017-11-11 02:00:00 11.1 32 Noroeste 56 Oeste 0 -- -- 75
2017-11-11 01:00:00 10.7 31 Oeste 50 Oeste 0 -- -- 79
2017-11-11 00:00:00 11.2 19 Oeste 43 Noroeste 0 -- -- 76
2017-11-10 23:00:00 12.2 27 Noroeste 46 Noroeste 0 -- -- 72
2017-11-10 22:00:00 11.8 27 Noroeste 49 Oeste 0 -- -- 71
2017-11-10 21:00:00 12.1 30 Oeste 49 Noroeste 0 -- -- 67
2017-11-10 20:00:00 12.7 33 Noroeste 49 Noroeste 0 -- -- 64
2017-11-10 19:00:00 12.3 18 Oeste 36 Noroeste 0 -- -- 64
2017-11-10 18:00:00 13 26 Noroeste 42 Oeste 0 -- -- 60
2017-11-10 17:00:00 14.6 24 Noroeste 42 Oeste 0 -- -- 55
2017-11-10 16:00:00 16.1 28 Noroeste 45 Noroeste 0 -- -- 50
2017-11-10 15:00:00 17.2 30 Noroeste 48 Oeste 0 -- -- 49
2017-11-10 14:00:00 17.1 27 Noroeste 40 Oeste 0 -- -- 48
2017-11-10 13:00:00 16.9 19 Noroeste 32 Noroeste 0 -- -- 47
2017-11-10 12:00:00 15.6 12 Noroeste 23 Noroeste 0 -- -- 49
2017-11-10 11:00:00 12.7 10 Oeste 27 Oeste 0 -- -- 61
2017-11-10 10:00:00 9.5 10 Oeste 21 Oeste 0 -- -- 69
2017-11-10 09:00:00 4.4 4 Oeste 9 Oeste 0 -- -- 84
2017-11-10 08:00:00 1 2 Noroeste 11 Oeste 0 -- -- 80
2017-11-10 07:00:00 2.7 0 Calma 18 Oeste 0 -- -- 78
2017-11-10 06:00:00 3 2 Noroeste 15 Oeste 0 -- -- 78
2017-11-10 05:00:00 4 7 Noroeste 16 Oeste 0 -- -- 79
2017-11-10 04:00:00 4.5 8 Oeste 20 Oeste 0 -- -- 81
2017-11-10 03:00:00 5.4 14 Oeste 24 Noroeste 0 -- -- 81
2017-11-10 02:00:00 5.7 10 Oeste 24 Oeste 0 -- -- 81
2017-11-10 01:00:00 6 14 Oeste 31 Oeste 0 -- -- 79
2017-11-10 00:00:00 6.1 20 Oeste 34 Oeste 0 -- -- 77
2017-11-09 23:00:00 6.5 22 Oeste 33 Noroeste 0 -- -- 75
2017-11-09 22:00:00 6.2 16 Oeste 28 Oeste 0 -- -- 77
2017-11-09 21:00:00 6.7 19 Noroeste 37 Oeste 0 -- -- 74
2017-11-09 20:00:00 7.3 20 Oeste 34 Oeste 0 -- -- 72
2017-11-09 19:00:00 8.1 24 Noroeste 35 Noroeste 0 -- -- 67
2017-11-09 18:00:00 9.2 18 Oeste 42 Noroeste 0 -- -- 64
2017-11-09 17:00:00 11.8 18 Oeste 45 Oeste 0 -- -- 51
2017-11-09 16:00:00 12.3 32 Oeste 55 Noroeste 0 -- -- 52
2017-11-09 15:00:00 12.9 40 Noroeste 58 Noroeste 0 -- -- 50
2017-11-09 14:00:00 13.8 33 Noroeste 53 Noroeste 0 -- -- 47
2017-11-09 13:00:00 13.6 29 Oeste 48 Noroeste 0 -- -- 49
2017-11-09 12:00:00 12.5 31 Oeste 52 Noroeste 0 -- -- 52
2017-11-09 11:00:00 10.3 28 Noroeste 48 Oeste 0 -- -- 64
2017-11-09 10:00:00 7.7 28 Noroeste 48 Oeste 0 -- -- 77
2017-11-09 09:00:00 6.1 28 Noroeste 43 Oeste 0 -- -- 82
2017-11-09 08:00:00 5 19 Oeste 38 Noroeste 0 -- -- 85
2017-11-09 07:00:00 4.8 21 Noroeste 30 Noroeste 0 -- -- 85
2017-11-09 06:00:00 4.6 12 Oeste 39 Oeste 0 -- -- 83
2017-11-09 05:00:00 4.9 18 Oeste 37 Noroeste 0 -- -- 82
2017-11-09 04:00:00 4.4 8 Oeste 35 Oeste 0 -- -- 84
2017-11-09 03:00:00 4.7 25 Oeste 46 Noroeste 0 -- -- 83
2017-11-09 02:00:00 5 21 Noroeste 39 Oeste 0 -- -- 80
2017-11-09 01:00:00 4.6 26 Noroeste 43 Noroeste 0 -- -- 81
2017-11-09 00:00:00 4.5 18 Oeste 44 Oeste 0 -- -- 79
2017-11-08 23:00:00 4.1 22 Noroeste 36 Oeste 0 -- -- 82
2017-11-08 22:00:00 3.8 16 Oeste 29 Oeste 0 -- -- 84
2017-11-08 21:00:00 4.3 11 Oeste 27 Sudoeste 0 -- -- 83
2017-11-08 20:00:00 5.1 17 Sudoeste 42 Oeste 0 -- -- 81
2017-11-08 19:00:00 6.5 24 Oeste 41 Oeste 0 -- -- 75
2017-11-08 18:00:00 7.8 18 Oeste 38 Oeste 0 -- -- 69
2017-11-08 17:00:00 9.5 22 Oeste 46 Oeste 0 -- -- 61
2017-11-08 16:00:00 9.9 15 Oeste 43 Oeste 0 -- -- 59
2017-11-08 15:00:00 11.2 30 Oeste 48 Oeste 0 -- -- 56
2017-11-08 14:00:00 10.8 27 Oeste 48 Noroeste 0 -- -- 58
2017-11-08 13:00:00 10.7 31 Oeste 49 Noroeste 0 -- -- 59
2017-11-08 12:00:00 11.4 26 Noroeste 44 Noroeste 0 -- -- 55
2017-11-08 11:00:00 11.4 19 Oeste 40 Oeste 0 -- -- 61
2017-11-08 10:00:00 10.1 18 Oeste 36 Oeste 0 -- -- 69
2017-11-08 09:00:00 7.5 15 Oeste 32 Oeste 0 -- -- 81
2017-11-08 08:00:00 5.9 12 Oeste 24 Oeste 0 -- -- 82
2017-11-08 07:00:00 6.9 5 Oeste 44 Oeste 0 -- -- 75
2017-11-08 06:00:00 8.1 23 Oeste 45 Oeste 0 -- -- 71
2017-11-08 05:00:00 7.6 17 Oeste 49 Oeste 0 -- -- 73
2017-11-08 04:00:00 7.6 18 Oeste 29 Oeste 0 -- -- 77
2017-11-08 03:00:00 7.7 12 Oeste 28 Sudoeste 0 -- -- 75
2017-11-08 02:00:00 8.2 14 Oeste 41 Oeste 0 -- -- 66
2017-11-08 01:00:00 7.6 23 Oeste 42 Oeste 0 -- -- 61
2017-11-08 00:00:00 8 20 Oeste 35 Oeste 0 -- -- 54
2017-11-07 23:00:00 8 18 Oeste 41 Oeste 0 -- -- 46
2017-11-07 22:00:00 8.3 26 Oeste 47 Oeste 0 -- -- 38
2017-11-07 21:00:00 8.3 27 Oeste 44 Oeste 0 -- -- 34
2017-11-07 20:00:00 8.7 26 Oeste 42 Oeste 0 -- -- 35
2017-11-07 19:00:00 9.7 25 Oeste 37 Noroeste 0 -- -- 38
2017-11-07 18:00:00 11 16 Oeste 43 Oeste 0 -- -- 36
2017-11-07 17:00:00 12.9 26 Oeste 45 Oeste 0 -- -- 31
2017-11-07 16:00:00 14 21 Oeste 44 Oeste 0 -- -- 33
2017-11-07 15:00:00 14.8 16 Oeste 35 Oeste 0 -- -- 31
2017-11-07 14:00:00 13.9 17 Oeste 35 Oeste 0 -- -- 33
2017-11-07 13:00:00 12 18 Oeste 35 Oeste 0 -- -- 39
2017-11-07 12:00:00 10 16 Oeste 35 Oeste 0 -- -- 48
2017-11-07 11:00:00 6.7 17 Oeste 30 Oeste 0 -- -- 60
2017-11-07 10:00:00 5.2 15 Oeste 26 Oeste 0 -- -- 67
2017-11-07 09:00:00 4.1 14 Oeste 26 Oeste 0 -- -- 70
2017-11-07 08:00:00 1 7 Oeste 24 Noroeste 0 -- -- 76
2017-11-07 07:00:00 0.6 7 Noroeste 15 Noroeste 0 -- -- 76
2017-11-07 06:00:00 1.8 8 Oeste 20 Oeste 0 -- -- 72
2017-11-07 05:00:00 2.1 9 Oeste 21 Oeste 0 -- -- 72
2017-11-07 04:00:00 0.9 9 Oeste 19 Oeste 0 -- -- 79
2017-11-07 03:00:00 1.9 5 Oeste 19 Noroeste 0 -- -- 71
2017-11-07 02:00:00 3.8 15 Noroeste 32 Noroeste 0 -- -- 67
2017-11-07 01:00:00 4.4 18 Noroeste 31 Oeste 0 -- -- 66
2017-11-07 00:00:00 5.3 17 Oeste 33 Oeste 0 -- -- 63
2017-11-06 23:00:00 5.8 21 Noroeste 37 Oeste 0 -- -- 64
2017-11-06 22:00:00 6.3 26 Noroeste 42 Oeste 0 -- -- 62
2017-11-06 21:00:00 6.9 26 Oeste 42 Oeste 0 -- -- 63
2017-11-06 20:00:00 7.3 25 Oeste 50 Oeste 0 -- -- 63
2017-11-06 19:00:00 7.9 30 Oeste 43 Oeste 0 -- -- 62
2017-11-06 18:00:00 9.4 29 Noroeste 49 Noroeste 0 -- -- 45
2017-11-06 17:00:00 11.3 33 Noroeste 58 Oeste 0 -- -- 42
2017-11-06 16:00:00 12.5 39 Noroeste 56 Noroeste 0 -- -- 38
2017-11-06 15:00:00 13.3 35 Noroeste 58 Noroeste 0 -- -- 36
2017-11-06 14:00:00 13.6 36 Oeste 60 Oeste 0 -- -- 35
2017-11-06 13:00:00 13.4 28 Oeste 50 Oeste 0 -- -- 40
2017-11-06 12:00:00 12.7 28 Oeste 48 Noroeste 0 -- -- 44
2017-11-06 11:00:00 11 27 Oeste 47 Oeste 0 -- -- 56
2017-11-06 10:00:00 9 27 Oeste 51 Oeste 0 -- -- 67
2017-11-06 09:00:00 7.7 27 Oeste 49 Oeste 0 -- -- 70
2017-11-06 08:00:00 6.3 19 Oeste 36 Oeste 0 -- -- 76
2017-11-06 07:00:00 6.2 13 Oeste 32 Oeste 0 -- -- 78
2017-11-06 06:00:00 6.6 14 Oeste 38 Sudoeste 0 -- -- 76
2017-11-06 05:00:00 6.7 17 Oeste 39 Oeste 0 -- -- 74
2017-11-06 04:00:00 6.5 15 Oeste 37 Oeste 0 -- -- 79
2017-11-06 03:00:00 7.2 17 Oeste 36 Oeste 0 -- -- 76
2017-11-06 02:00:00 6.9 22 Oeste 34 Oeste 0 -- -- 83
2017-11-06 01:00:00 7 21 Oeste 35 Oeste 0 -- -- 85
2017-11-06 00:00:00 7.1 19 Oeste 38 Oeste 0 -- -- 84
2017-11-05 23:00:00 7.8 24 Oeste 40 Oeste 0 -- -- 82
2017-11-05 22:00:00 8 21 Oeste 41 Oeste 0 -- -- 81
2017-11-05 21:00:00 8.7 23 Oeste 39 Oeste 0 -- -- 78
2017-11-05 20:00:00 9 19 Oeste 37 Oeste 0 -- -- 75
2017-11-05 19:00:00 9.6 23 Oeste 51 Oeste 0 -- -- 71
2017-11-05 18:00:00 10.4 24 Oeste 49 Oeste 0 -- -- 67
2017-11-05 17:00:00 12.5 24 Oeste 44 Noroeste 0 -- -- 59
2017-11-05 16:00:00 13.9 26 Oeste 57 Oeste 0 -- -- 52
2017-11-05 15:00:00 14.5 31 Noroeste 60 Oeste 0 -- -- 52
2017-11-05 14:00:00 14.5 37 Oeste 59 Oeste 0 -- -- 53
2017-11-05 13:00:00 14.4 34 Oeste 58 Oeste 0 -- -- 55
2017-11-05 12:00:00 14.2 27 Oeste 54 Oeste 0 -- -- 58
2017-11-05 11:00:00 13 29 Oeste 53 Oeste 0 -- -- 61
2017-11-05 10:00:00 11.8 28 Oeste 50 Oeste 0 -- -- 67
2017-11-05 09:00:00 10.3 15 Oeste 43 Oeste 0 -- -- 75
2017-11-05 08:00:00 9.8 23 Oeste 50 Oeste 0.2 -- -- 79
2017-11-05 07:00:00 9.9 22 Oeste 44 Oeste 0 -- -- 80
2017-11-05 06:00:00 10.5 12 Oeste 39 Noroeste 0 -- -- 80
2017-11-05 05:00:00 11.1 21 Oeste 37 Oeste 0 -- -- 82
2017-11-05 04:00:00 10.7 21 Oeste 41 Oeste 0 -- -- 92
2017-11-05 03:00:00 10.7 16 Oeste 37 Oeste 0 -- -- 91
2017-11-05 02:00:00 10.8 23 Oeste 41 Oeste 0 -- -- 91
2017-11-05 01:00:00 10.6 16 Oeste 33 Oeste 0 -- -- 90
2017-11-05 00:00:00 10.9 17 Oeste 27 Oeste 0 -- -- 91
2017-11-04 23:00:00 11.4 13 Oeste 22 Oeste 0 -- -- 93
2017-11-04 22:00:00 11.4 10 Oeste 17 Oeste 0 -- -- 93
2017-11-04 21:00:00 11.5 4 Oeste 9 Oeste 0 -- -- 91
2017-11-04 20:00:00 12.4 2 Oeste 15 Noroeste 0.2 -- -- 88
2017-11-04 19:00:00 13.7 13 Noroeste 19 Noroeste 0.2 -- -- 89
2017-11-04 18:00:00 15.1 5 Sur 10 Sur 1 -- -- 86
2017-11-04 17:00:00 16.6 3 Norte 10 Nordeste 0 -- -- 75
2017-11-04 16:00:00 17.7 4 Este 12 Este 0 -- -- 72
2017-11-04 15:00:00 17.6 5 Este 15 Este 0 -- -- 76
2017-11-04 14:00:00 16.1 8 Sudeste 17 Este 0 -- -- 86
2017-11-04 13:00:00 15.8 10 Sudeste 17 Este 0 -- -- 89
2017-11-04 12:00:00 15 10 Sudeste 21 Sudeste 0 -- -- 94
2017-11-04 11:00:00 14.1 14 Sudeste 22 Sudeste 0.6 -- -- 95
2017-11-04 10:00:00 13.8 9 Este 14 Este 0 -- -- 94
2017-11-04 09:00:00 13.4 3 Este 10 Nordeste 0 -- -- 96
2017-11-04 08:00:00 13.2 6 Nordeste 8 Nordeste 0 -- -- 96
2017-11-04 07:00:00 13.1 3 Oeste 27 Este 0.4 -- -- 95
2017-11-04 06:00:00 12.8 17 Sudeste 26 Este 0.6 -- -- 95
2017-11-04 05:00:00 12.9 9 Este 15 Nordeste 0 -- -- 95
2017-11-04 04:00:00 12.7 8 Este 13 Nordeste 0 -- -- 94
2017-11-04 03:00:00 12.5 3 Este 19 Nordeste 0.2 -- -- 92
2017-11-04 02:00:00 12.8 7 Noroeste 22 Este 0.6 -- -- 93
2017-11-04 01:00:00 12.6 10 Sudeste 16 Este 1.4 -- -- 92
2017-11-04 00:00:00 12.3 0 Calma 9 Este 0 -- -- 87
2017-11-03 23:00:00 13.2 0 Calma 14 Nordeste 0 -- -- 84
2017-11-03 22:00:00 13.5 8 Nordeste 15 Nordeste 0 -- -- 85
2017-11-03 21:00:00 14.1 8 Este 11 Este 0 -- -- 83
2017-11-03 20:00:00 14.2 8 Este 12 Este 0 -- -- 80
2017-11-03 19:00:00 14.8 6 Este 10 Este 0 -- -- 76
2017-11-03 18:00:00 16.9 5 Este 9 Este 0 -- -- 69
2017-11-03 17:00:00 19 8 Sudeste 13 Sudeste 0 -- -- 64
2017-11-03 16:00:00 20.5 6 Sudeste 18 Sudeste 0 -- -- 59
2017-11-03 15:00:00 19.5 13 Sudeste 23 Sudeste 0 -- -- 65
2017-11-03 14:00:00 19 14 Sudeste 24 Sudeste 0 -- -- 69
2017-11-03 13:00:00 17.1 13 Sudeste 29 Sudeste 0 -- -- 74
2017-11-03 12:00:00 17.1 17 Este 30 Este 0 -- -- 75
2017-11-03 11:00:00 14.2 11 Este 17 Este 0 -- -- 84
2017-11-03 10:00:00 12.8 6 Sudeste 11 Sudeste 0 -- -- 93
2017-11-03 09:00:00 11.8 4 Sudeste 13 Este 0 -- -- 96
2017-11-03 08:00:00 9.7 9 Este 17 Este 0 -- -- 95
2017-11-03 07:00:00 9.9 9 Nordeste 14 Nordeste 0 -- -- 95
2017-11-03 06:00:00 10.9 8 Nordeste 15 Este 0 -- -- 94
2017-11-03 05:00:00 11.4 10 Este 15 Este 0 -- -- 94
2017-11-03 04:00:00 11.2 12 Este 16 Este 0 -- -- 94
2017-11-03 03:00:00 11.1 9 Este 14 Este 0 -- -- 93
2017-11-03 02:00:00 11.4 8 Este 11 Este 0 -- -- 92
2017-11-03 01:00:00 11.6 7 Este 12 Este 0 -- -- 90
2017-11-03 00:00:00 11.5 6 Este 11 Este 0 -- -- 91
2017-11-02 23:00:00 11.4 4 Este 10 Este 0 -- -- 89
2017-11-02 22:00:00 12 6 Nordeste 9 Este 0 -- -- 90
2017-11-02 21:00:00 12.1 3 Nordeste 13 Este 0 -- -- 86
2017-11-02 20:00:00 13.1 7 Nordeste 13 Nordeste 0 -- -- 85
2017-11-02 19:00:00 14.5 9 Este 14 Este 0 -- -- 80
2017-11-02 18:00:00 16.6 9 Este 21 Este 0 -- -- 73
2017-11-02 17:00:00 18.3 12 Este 21 Este 0 -- -- 68
2017-11-02 16:00:00 18.4 12 Este 20 Este 0 -- -- 68
2017-11-02 15:00:00 18.1 12 Este 24 Este 0 -- -- 69
2017-11-02 14:00:00 18.4 12 Sudeste 23 Sudeste 0 -- -- 69
2017-11-02 13:00:00 16.9 15 Sudeste 25 Este 0 -- -- 74
2017-11-02 12:00:00 16.4 13 Este 20 Este 0 -- -- 76
2017-11-02 11:00:00 14.8 11 Este 18 Este 0 -- -- 82
2017-11-02 10:00:00 12.6 8 Este 16 Este 0 -- -- 91
2017-11-02 09:00:00 11.6 10 Este 15 Este 0 -- -- 94
2017-11-02 08:00:00 11.3 8 Este 11 Este 0 -- -- 95
2017-11-02 07:00:00 10.9 7 Este 14 Este 0 -- -- 94
2017-11-02 06:00:00 10.3 6 Este 13 Este 0 -- -- 93
2017-11-02 05:00:00 10.7 10 Este 15 Este 0 -- -- 93
2017-11-02 04:00:00 11.5 10 Este 14 Este 0 -- -- 92
2017-11-02 03:00:00 11.7 3 Este 9 Este 0 -- -- 90
2017-11-02 02:00:00 12.2 8 Este 18 Este 0 -- -- 92
2017-11-02 01:00:00 11.2 13 Este 20 Este 0 -- -- 91
2017-11-02 00:00:00 11.3 11 Este 19 Este 0 -- -- 89
2017-11-01 23:00:00 11.6 8 Este 20 Nordeste 0 -- -- 86
2017-11-01 22:00:00 12.2 13 Nordeste 20 Nordeste 0 -- -- 84
2017-11-01 21:00:00 12.4 7 Nordeste 14 Nordeste 0 -- -- 83
2017-11-01 20:00:00 13.2 10 Nordeste 14 Nordeste 0 -- -- 82
2017-11-01 19:00:00 14 8 Este 13 Este 0 -- -- 78
2017-11-01 18:00:00 15.7 8 Este 17 Sudeste 0 -- -- 71
2017-11-01 17:00:00 18 11 Este 21 Este 0 -- -- 65
2017-11-01 16:00:00 19.2 14 Este 25 Sudeste 0 -- -- 61
2017-11-01 15:00:00 19.1 13 Este 22 Sudeste 0 -- -- 61
2017-11-01 14:00:00 18.4 13 Sudeste 22 Sudeste 0 -- -- 63
2017-11-01 13:00:00 17.8 15 Sudeste 24 Este 0 -- -- 64
2017-11-01 12:00:00 16 13 Sudeste 22 Sudeste 0 -- -- 66
2017-11-01 11:00:00 14.7 10 Este 17 Este 0 -- -- 72
2017-11-01 10:00:00 12.5 6 Este 10 Este 0 -- -- 81
2017-11-01 09:00:00 10.9 5 Este 8 Nordeste 0 -- -- 85
2017-11-01 08:00:00 10.3 6 Este 10 Nordeste 0 -- -- 86
2017-11-01 07:00:00 10.2 6 Nordeste 10 Este 0 -- -- 87
2017-11-01 06:00:00 9.7 5 Nordeste 12 Nordeste 0 -- -- 88
2017-11-01 05:00:00 9.4 8 Este 11 Este 0 -- -- 88
2017-11-01 04:00:00 8.6 3 Nordeste 6 Este 0 -- -- 89
2017-11-01 03:00:00 8.7 4 Nordeste 10 Este 0 -- -- 88
2017-11-01 02:00:00 8.7 5 Este 16 Este 0 -- -- 86
2017-11-01 01:00:00 8.1 5 Este 12 Este 0 -- -- 87
2017-11-01 00:00:00 8.6 5 Este 17 Este 0 -- -- 84
2017-10-31 23:00:00 8.5 8 Este 13 Nordeste 0 -- -- 85
2017-10-31 22:00:00 8.6 2 Este 8 Este 0 -- -- 79
2017-10-31 21:00:00 9.6 5 Este 12 Nordeste 0 -- -- 77
2017-10-31 20:00:00 10.7 8 Este 11 Este 0 -- -- 75
2017-10-31 19:00:00 12.1 4 Este 11 Este 0 -- -- 65
2017-10-31 18:00:00 14.4 7 Este 15 Este 0 -- -- 59
2017-10-31 17:00:00 17 9 Este 16 Sudeste 0 -- -- 52
2017-10-31 16:00:00 17.9 6 Sudeste 14 Sudeste 0 -- -- 50
2017-10-31 15:00:00 17.7 5 Este 16 Sudeste 0 -- -- 50
2017-10-31 14:00:00 16.9 6 Sudeste 11 Sudeste 0 -- -- 51
2017-10-31 13:00:00 15.4 5 Este 12 Sudoeste 0 -- -- 54
2017-10-31 12:00:00 13.8 4 Sudoeste 15 Sudoeste 0 -- -- 60
2017-10-31 11:00:00 11.7 8 Oeste 14 Sudoeste 0 -- -- 67
2017-10-31 10:00:00 8.7 5 Noroeste 12 Noroeste 0 -- -- 78
2017-10-31 09:00:00 6.2 4 Noroeste 9 Noroeste 0 -- -- 89
2017-10-31 08:00:00 2.9 3 Noroeste 5 Noroeste 0 -- -- 89
2017-10-31 07:00:00 3.5 4 Oeste 8 Noroeste 0 -- -- 87
2017-10-31 06:00:00 4.2 5 Noroeste 6 Noroeste 0 -- -- 87
2017-10-31 05:00:00 5.5 4 Oeste 11 Oeste 0 -- -- 85
2017-10-31 04:00:00 6.2 5 Oeste 11 Oeste 0 -- -- 84
2017-10-31 03:00:00 6.3 5 Oeste 10 Oeste 0 -- -- 83
2017-10-31 02:00:00 6.6 3 Oeste 9 Oeste 0 -- -- 81
2017-10-31 01:00:00 7.9 7 Oeste 21 Noroeste 0 -- -- 79
2017-10-31 00:00:00 8.5 10 Noroeste 29 Oeste 0 -- -- 76
2017-10-30 23:00:00 9.2 15 Oeste 33 Noroeste 0 -- -- 73
2017-10-30 22:00:00 10 18 Oeste 34 Noroeste 0 -- -- 72
2017-10-30 21:00:00 10.9 16 Oeste 31 Oeste 0 -- -- 70
2017-10-30 20:00:00 12.1 16 Oeste 33 Oeste 0 -- -- 67
2017-10-30 19:00:00 13.2 14 Oeste 35 Oeste 0 -- -- 62
2017-10-30 18:00:00 15.3 23 Oeste 42 Oeste 0 -- -- 56
2017-10-30 17:00:00 18 24 Oeste 45 Oeste 0 -- -- 49
2017-10-30 16:00:00 20.4 21 Oeste 40 Oeste 0 -- -- 43
2017-10-30 15:00:00 21 20 Oeste 36 Oeste 0 -- -- 44
2017-10-30 14:00:00 21.3 19 Oeste 36 Sudoeste 0 -- -- 44
2017-10-30 13:00:00 21.4 10 Oeste 25 Noroeste 0 -- -- 40
2017-10-30 12:00:00 20.1 13 Noroeste 28 Noroeste 0 -- -- 45
2017-10-30 11:00:00 17.5 16 Oeste 31 Oeste 0 -- -- 58
2017-10-30 10:00:00 14.9 17 Oeste 28 Oeste 0 -- -- 71
2017-10-30 09:00:00 12.3 16 Oeste 26 Noroeste 0 -- -- 81
2017-10-30 08:00:00 10.4 14 Oeste 23 Oeste 0 -- -- 89
2017-10-30 07:00:00 10 13 Noroeste 30 Oeste 0 -- -- 88
2017-10-30 06:00:00 10.6 18 Oeste 33 Oeste 0 -- -- 86
2017-10-30 05:00:00 10.8 19 Oeste 33 Oeste 0 -- -- 85
2017-10-30 04:00:00 10.9 17 Noroeste 30 Oeste 0 -- -- 85
2017-10-30 03:00:00 11.1 13 Oeste 30 Oeste 0 -- -- 85
2017-10-30 02:00:00 11.6 21 Oeste 35 Oeste 0 -- -- 84
2017-10-30 01:00:00 11.8 19 Oeste 35 Oeste 0 -- -- 82
2017-10-30 00:00:00 11.7 17 Oeste 32 Oeste 0 -- -- 81
2017-10-29 23:00:00 11.8 15 Oeste 38 Noroeste 0 -- -- 79
2017-10-29 22:00:00 11.9 18 Oeste 37 Oeste 0 -- -- 77
2017-10-29 21:00:00 12.1 21 Oeste 37 Oeste 0 -- -- 73
2017-10-29 20:00:00 12.5 21 Oeste 42 Oeste 0 -- -- 70
2017-10-29 19:00:00 13.8 18 Oeste 37 Oeste 0 -- -- 63
2017-10-29 18:00:00 15.8 22 Oeste 45 Oeste 0 -- -- 53
2017-10-29 17:00:00 18.7 21 Oeste 42 Oeste 0 -- -- 44
2017-10-29 16:00:00 20.3 23 Oeste 42 Oeste 0 -- -- 40
2017-10-29 15:00:00 21 14 Oeste 33 Sudoeste 0 -- -- 39
2017-10-29 14:00:00 20.5 17 Oeste 31 Oeste 0 -- -- 38
2017-10-29 13:00:00 18.9 14 Oeste 29 Oeste 0 -- -- 41
2017-10-29 12:00:00 16.8 15 Oeste 31 Oeste 0 -- -- 49
2017-10-29 11:00:00 14 17 Oeste 25 Oeste 0 -- -- 58
2017-10-29 10:00:00 11.3 16 Noroeste 26 Noroeste 0 -- -- 71
2017-10-29 09:00:00 7.3 4 Noroeste 10 Noroeste 0 -- -- 88
2017-10-29 08:00:00 4.8 3 Noroeste 8 Oeste 0 -- -- 88
2017-10-29 07:00:00 5.2 6 Oeste 11 Oeste 0 -- -- 88
2017-10-29 06:00:00 6.4 4 Noroeste 18 Oeste 0 -- -- 85
2017-10-29 05:00:00 7.2 10 Noroeste 16 Oeste 0 -- -- 86
2017-10-29 04:00:00 8.1 10 Oeste 18 Oeste 0 -- -- 84
2017-10-29 03:00:00 9 12 Oeste 21 Sudoeste 0 -- -- 81
2017-10-29 02:00:00 9.5 10 Oeste 26 Oeste 0 -- -- 79
2017-10-29 01:00:00 10.2 14 Oeste 27 Oeste 0 -- -- 76
2017-10-29 00:00:00 10.6 8 Oeste 26 Noroeste 0 -- -- 76
2017-10-28 23:00:00 11.4 10 Oeste 21 Oeste 0 -- -- 74
2017-10-28 22:00:00 12.2 10 Oeste 25 Oeste 0 -- -- 71
2017-10-28 21:00:00 13.4 7 Oeste 27 Oeste 0 -- -- 66
2017-10-28 20:00:00 14.8 11 Oeste 28 Oeste 0 -- -- 61
2017-10-28 19:00:00 17.2 14 Oeste 31 Noroeste 0 -- -- 53
2017-10-28 18:00:00 20.1 15 Oeste 37 Oeste 0 -- -- 47
2017-10-28 17:00:00 21.6 16 Oeste 33 Oeste 0 -- -- 42
2017-10-28 16:00:00 22.5 15 Oeste 28 Oeste 0 -- -- 40
2017-10-28 15:00:00 22.6 10 Oeste 24 Oeste 0 -- -- 40
2017-10-28 14:00:00 21.3 14 Oeste 26 Sudoeste 0 -- -- 44
2017-10-28 13:00:00 20 12 Oeste 24 Oeste 0 -- -- 49
2017-10-28 12:00:00 18 12 Oeste 26 Noroeste 0 -- -- 58
2017-10-28 11:00:00 15.4 15 Oeste 27 Noroeste 0 -- -- 69
2017-10-28 10:00:00 12.9 11 Oeste 28 Noroeste 0 -- -- 79
2017-10-28 09:00:00 11.2 12 Oeste 24 Oeste 0 -- -- 85
2017-10-28 08:00:00 11.4 9 Oeste 23 Oeste 0 -- -- 84
2017-10-28 07:00:00 11.1 8 Noroeste 14 Oeste 0 -- -- 84
2017-10-28 06:00:00 11.7 8 Oeste 23 Oeste 0 -- -- 83
2017-10-28 05:00:00 12.4 13 Noroeste 31 Noroeste 0 -- -- 81
2017-10-28 04:00:00 13.3 19 Oeste 32 Oeste 0 -- -- 76
2017-10-28 03:00:00 13.9 19 Oeste 33 Oeste 0 -- -- 74
2017-10-28 02:00:00 14 13 Oeste 26 Oeste 0 -- -- 72
2017-10-28 01:00:00 14.3 14 Oeste 34 Noroeste 0 -- -- 72
2017-10-28 00:00:00 14.7 22 Oeste 39 Oeste 0 -- -- 72
2017-10-27 23:00:00 14.9 21 Oeste 42 Oeste 0 -- -- 72
2017-10-27 22:00:00 15.4 22 Oeste 41 Oeste 0 -- -- 70
2017-10-27 21:00:00 16 23 Oeste 49 Oeste 0 -- -- 67
2017-10-27 20:00:00 17.3 32 Oeste 55 Oeste 0 -- -- 62
2017-10-27 19:00:00 19.2 23 Oeste 42 Oeste 0 -- -- 55
2017-10-27 18:00:00 21.5 24 Oeste 50 Oeste 0 -- -- 49
2017-10-27 17:00:00 22.8 30 Oeste 57 Oeste 0 -- -- 47
2017-10-27 16:00:00 23.9 27 Oeste 51 Oeste 0 -- -- 45
2017-10-27 15:00:00 23.4 27 Oeste 51 Oeste 0 -- -- 49
2017-10-27 14:00:00 22.7 30 Oeste 51 Oeste 0 -- -- 49
2017-10-27 13:00:00 21.7 27 Oeste 55 Oeste 0 -- -- 53
2017-10-27 12:00:00 20.2 26 Oeste 48 Oeste 0 -- -- 57
2017-10-27 11:00:00 16.5 22 Oeste 43 Oeste 0 -- -- 65
2017-10-27 10:00:00 13.4 15 Oeste 28 Oeste 0 -- -- 75
2017-10-27 09:00:00 11.6 14 Oeste 25 Oeste 0 -- -- 80
2017-10-27 08:00:00 11.4 14 Oeste 23 Oeste 0 -- -- 82
2017-10-27 07:00:00 11.1 8 Oeste 19 Oeste 0 -- -- 86
2017-10-27 06:00:00 10.7 8 Noroeste 18 Oeste 0 -- -- 85
2017-10-27 05:00:00 11.1 9 Oeste 14 Oeste 0 -- -- 86
2017-10-27 04:00:00 8.7 4 Oeste 10 Noroeste 0 -- -- 85
2017-10-27 03:00:00 9.1 8 Oeste 10 Oeste 0 -- -- 86
2017-10-27 02:00:00 8.2 0 Calma 4 Nordeste 0 -- -- 83
2017-10-27 01:00:00 9.2 2 Nordeste 4 Nordeste 0 -- -- 81
2017-10-27 00:00:00 10.2 2 Norte 5 Oeste 0 -- -- 82
2017-10-26 23:00:00 11.6 4 Noroeste 7 Noroeste 0 -- -- 76
2017-10-26 22:00:00 12.3 0 Calma 3 Noroeste 0 -- -- 73
2017-10-26 21:00:00 15.3 3 Noroeste 10 Oeste 0 -- -- 66
2017-10-26 20:00:00 18.9 6 Oeste 12 Oeste 0 -- -- 58
2017-10-26 19:00:00 22.4 8 Oeste 14 Oeste 0 -- -- 47
2017-10-26 18:00:00 25.8 6 Oeste 18 Oeste 0 -- -- 37
2017-10-26 17:00:00 26.7 9 Oeste 17 Sudoeste 0 -- -- 36
2017-10-26 16:00:00 26.3 9 Oeste 19 Sudoeste 0 -- -- 37
2017-10-26 15:00:00 25.2 8 Oeste 17 Oeste 0 -- -- 45
2017-10-26 14:00:00 23.6 7 Oeste 13 Sudoeste 0 -- -- 48
2017-10-26 13:00:00 21.9 7 Sudoeste 12 Sudoeste 0 -- -- 57
2017-10-26 12:00:00 19.7 3 Sudoeste 6 Sudoeste 0 -- -- 63
2017-10-26 11:00:00 16.3 3 Sur 5 Sur 0 -- -- 80
2017-10-26 10:00:00 12 0 Calma 3 Nordeste 0 -- -- 94
2017-10-26 09:00:00 7.1 0 Calma 5 Oeste 0 -- -- 91
2017-10-26 08:00:00 7.2 0 Calma 6 Nordeste 0 -- -- 89
2017-10-26 07:00:00 7.6 4 Norte 6 Nordeste 0 -- -- 90
2017-10-26 06:00:00 8 0 Calma 5 Nordeste 0 -- -- 86
2017-10-26 05:00:00 9 3 Nordeste 5 Nordeste 0 -- -- 86
2017-10-26 04:00:00 10.2 0 Calma 14 Este 0 -- -- 81
2017-10-26 03:00:00 11.9 10 Nordeste 13 Nordeste 0 -- -- 87
2017-10-26 02:00:00 9.9 5 Nordeste 10 Este 0 -- -- 87
2017-10-26 01:00:00 10.3 2 Sudeste 5 Este 0 -- -- 80
2017-10-26 00:00:00 12.6 0 Calma 8 Nordeste 0 -- -- 76